Aviation Digital Data Service (ADDS)

Output produced by METARs form (0223 UTC 11 February 2016)
found at http://aviationweather.gov/adds/metars/
 
KYNG 102341Z 1100/1124 29010KT 2SM -SHSN BKN015 OVC030 
     TEMPO 1100/1103 1/2SM SN OVC008 
     FM110700 27012KT 5SM -SHSN BKN015 OVC025 
     FM111000 30010KT P6SM -SHSN BKN025 
     FM111500 30012KT P6SM BKN035